sensor_id;sensor_type;location;lat;lon;timestamp;temperature;humidity
11320;DHT22;5715;48.234;14.320;2022-10-17T00:01:32;12.20;99.90
11320;DHT22;5715;48.234;14.320;2022-10-17T00:04:19;12.10;99.90
11320;DHT22;5715;48.234;14.320;2022-10-17T00:07:08;12.10;99.90
11320;DHT22;5715;48.234;14.320;2022-10-17T00:09:55;12.10;99.90
11320;DHT22;5715;48.234;14.320;2022-10-17T00:12:43;12.00;99.90
11320;DHT22;5715;48.234;14.320;2022-10-17T00:15:31;12.10;99.90
11320;DHT22;5715;48.234;14.320;2022-10-17T00:18:19;12.20;99.90
11320;DHT22;5715;48.234;14.320;2022-10-17T00:21:15;12.30;99.90
11320;DHT22;5715;48.234;14.320;2022-10-17T00:24:04;12.30;99.90
11320;DHT22;5715;48.234;14.320;2022-10-17T00:26:51;12.50;99.90
11320;DHT22;5715;48.234;14.320;2022-10-17T00:29:39;12.50;99.90
11320;DHT22;5715;48.234;14.320;2022-10-17T00:32:26;12.60;99.90
11320;DHT22;5715;48.234;14.320;2022-10-17T00:35:15;12.80;99.90
11320;DHT22;5715;48.234;14.320;2022-10-17T00:38:02;13.00;99.90
11320;DHT22;5715;48.234;14.320;2022-10-17T00:40:50;13.10;99.90
11320;DHT22;5715;48.234;14.320;2022-10-17T00:46:45;13.30;99.90
11320;DHT22;5715;48.234;14.320;2022-10-17T00:49:35;13.30;99.90
11320;DHT22;5715;48.234;14.320;2022-10-17T00:52:26;13.30;99.90
11320;DHT22;5715;48.234;14.320;2022-10-17T00:55:23;13.30;99.90
11320;DHT22;5715;48.234;14.320;2022-10-17T00:58:16;13.30;99.90
11320;DHT22;5715;48.234;14.320;2022-10-17T01:01:04;13.30;99.90
11320;DHT22;5715;48.234;14.320;2022-10-17T01:03:52;13.30;99.90
11320;DHT22;5715;48.234;14.320;2022-10-17T01:06:39;13.20;99.90
11320;DHT22;5715;48.234;14.320;2022-10-17T01:09:27;13.20;99.90
11320;DHT22;5715;48.234;14.320;2022-10-17T01:21:24;12.80;99.90
11320;DHT22;5715;48.234;14.320;2022-10-17T01:28:29;12.70;99.90
11320;DHT22;5715;48.234;14.320;2022-10-17T01:31:31;12.70;99.90
11320;DHT22;5715;48.234;14.320;2022-10-17T01:34:48;12.70;99.90
11320;DHT22;5715;48.234;14.320;2022-10-17T01:38:04;12.50;99.90
11320;DHT22;5715;48.234;14.320;2022-10-17T01:41:01;12.40;99.90
11320;DHT22;5715;48.234;14.320;2022-10-17T01:43:58;12.30;99.90
11320;DHT22;5715;48.234;14.320;2022-10-17T01:47:04;12.20;99.90
11320;DHT22;5715;48.234;14.320;2022-10-17T01:50:02;12.10;99.90
11320;DHT22;5715;48.234;14.320;2022-10-17T01:53:05;11.90;99.90
11320;DHT22;5715;48.234;14.320;2022-10-17T01:56:00;11.80;99.90
11320;DHT22;5715;48.234;14.320;2022-10-17T01:58:56;11.80;99.90
11320;DHT22;5715;48.234;14.320;2022-10-17T02:01:51;11.80;99.90
11320;DHT22;5715;48.234;14.320;2022-10-17T02:04:41;11.80;99.90
11320;DHT22;5715;48.234;14.320;2022-10-17T02:07:29;11.80;99.90
11320;DHT22;5715;48.234;14.320;2022-10-17T02:23:32;11.20;99.90
11320;DHT22;5715;48.234;14.320;2022-10-17T02:26:32;11.10;99.90
11320;DHT22;5715;48.234;14.320;2022-10-17T02:29:33;11.00;99.90
11320;DHT22;5715;48.234;14.320;2022-10-17T02:32:42;11.00;99.90
11320;DHT22;5715;48.234;14.320;2022-10-17T02:35:39;10.90;99.90
11320;DHT22;5715;48.234;14.320;2022-10-17T02:38:31;10.90;99.90
11320;DHT22;5715;48.234;14.320;2022-10-17T02:41:21;11.00;99.90
11320;DHT22;5715;48.234;14.320;2022-10-17T02:44:10;11.20;99.90
11320;DHT22;5715;48.234;14.320;2022-10-17T02:47:16;11.40;99.90
11320;DHT22;5715;48.234;14.320;2022-10-17T02:50:07;11.60;99.90
11320;DHT22;5715;48.234;14.320;2022-10-17T02:53:08;11.80;99.90
11320;DHT22;5715;48.234;14.320;2022-10-17T02:56:08;12.00;99.90
11320;DHT22;5715;48.234;14.320;2022-10-17T02:59:02;12.10;99.90
11320;DHT22;5715;48.234;14.320;2022-10-17T03:01:51;12.20;99.90
11320;DHT22;5715;48.234;14.320;2022-10-17T03:04:43;12.20;99.90
11320;DHT22;5715;48.234;14.320;2022-10-17T03:07:32;12.20;99.90
11320;DHT22;5715;48.234;14.320;2022-10-17T03:10:20;12.20;99.90
11320;DHT22;5715;48.234;14.320;2022-10-17T03:13:09;12.10;99.90
11320;DHT22;5715;48.234;14.320;2022-10-17T03:15:56;12.00;99.90
11320;DHT22;5715;48.234;14.320;2022-10-17T03:18:44;11.80;99.90
11320;DHT22;5715;48.234;14.320;2022-10-17T03:21:36;11.70;99.90
11320;DHT22;5715;48.234;14.320;2022-10-17T03:24:24;11.60;99.90
11320;DHT22;5715;48.234;14.320;2022-10-17T03:27:11;11.60;99.90
11320;DHT22;5715;48.234;14.320;2022-10-17T03:29:59;11.60;99.90
11320;DHT22;5715;48.234;14.320;2022-10-17T03:32:46;11.40;99.90
11320;DHT22;5715;48.234;14.320;2022-10-17T03:35:37;11.30;99.90
11320;DHT22;5715;48.234;14.320;2022-10-17T03:38:26;11.10;99.90
11320;DHT22;5715;48.234;14.320;2022-10-17T03:41:14;11.00;99.90
11320;DHT22;5715;48.234;14.320;2022-10-17T03:44:01;10.90;99.90
11320;DHT22;5715;48.234;14.320;2022-10-17T03:46:49;10.80;99.90
11320;DHT22;5715;48.234;14.320;2022-10-17T03:49:36;10.70;99.90
11320;DHT22;5715;48.234;14.320;2022-10-17T03:52:24;10.60;99.90
11320;DHT22;5715;48.234;14.320;2022-10-17T03:55:11;10.60;99.90
11320;DHT22;5715;48.234;14.320;2022-10-17T03:57:59;10.60;99.90
11320;DHT22;5715;48.234;14.320;2022-10-17T04:00:46;10.70;99.90
11320;DHT22;5715;48.234;14.320;2022-10-17T04:03:34;10.70;99.90
11320;DHT22;5715;48.234;14.320;2022-10-17T04:06:22;10.70;99.90
11320;DHT22;5715;48.234;14.320;2022-10-17T04:09:10;10.80;99.90
11320;DHT22;5715;48.234;14.320;2022-10-17T04:11:57;10.90;99.90
11320;DHT22;5715;48.234;14.320;2022-10-17T04:14:45;10.90;99.90
11320;DHT22;5715;48.234;14.320;2022-10-17T04:17:32;11.00;99.90
11320;DHT22;5715;48.234;14.320;2022-10-17T04:20:24;11.20;99.90
11320;DHT22;5715;48.234;14.320;2022-10-17T04:23:11;11.40;99.90
11320;DHT22;5715;48.234;14.320;2022-10-17T04:26:00;11.50;99.90
11320;DHT22;5715;48.234;14.320;2022-10-17T04:28:49;11.50;99.90
11320;DHT22;5715;48.234;14.320;2022-10-17T04:31:37;11.60;99.90
11320;DHT22;5715;48.234;14.320;2022-10-17T04:34:25;11.70;99.90
11320;DHT22;5715;48.234;14.320;2022-10-17T04:37:12;11.70;99.90
11320;DHT22;5715;48.234;14.320;2022-10-17T04:39:59;11.80;99.90
11320;DHT22;5715;48.234;14.320;2022-10-17T04:42:47;12.00;99.90
11320;DHT22;5715;48.234;14.320;2022-10-17T04:45:34;12.20;99.90
11320;DHT22;5715;48.234;14.320;2022-10-17T04:48:22;12.30;99.90
11320;DHT22;5715;48.234;14.320;2022-10-17T04:51:15;12.30;99.90
11320;DHT22;5715;48.234;14.320;2022-10-17T04:54:09;12.40;99.90
11320;DHT22;5715;48.234;14.320;2022-10-17T04:56:56;12.40;99.90
11320;DHT22;5715;48.234;14.320;2022-10-17T04:59:44;12.40;99.90
11320;DHT22;5715;48.234;14.320;2022-10-17T05:02:32;12.50;99.90
11320;DHT22;5715;48.234;14.320;2022-10-17T05:05:19;12.50;99.90
11320;DHT22;5715;48.234;14.320;2022-10-17T05:08:08;12.50;99.90
11320;DHT22;5715;48.234;14.320;2022-10-17T05:10:57;12.40;99.90
11320;DHT22;5715;48.234;14.320;2022-10-17T05:14:00;12.40;99.90
11320;DHT22;5715;48.234;14.320;2022-10-17T05:16:48;12.50;99.90
11320;DHT22;5715;48.234;14.320;2022-10-17T05:19:36;12.50;99.90
11320;DHT22;5715;48.234;14.320;2022-10-17T05:22:23;12.50;99.90
11320;DHT22;5715;48.234;14.320;2022-10-17T05:25:11;12.40;99.90
11320;DHT22;5715;48.234;14.320;2022-10-17T05:27:58;12.40;99.90
11320;DHT22;5715;48.234;14.320;2022-10-17T05:30:46;12.40;99.90
11320;DHT22;5715;48.234;14.320;2022-10-17T05:33:34;12.40;99.90
11320;DHT22;5715;48.234;14.320;2022-10-17T05:36:22;12.40;99.90
11320;DHT22;5715;48.234;14.320;2022-10-17T05:39:11;12.40;99.90
11320;DHT22;5715;48.234;14.320;2022-10-17T05:42:00;12.40;99.90
11320;DHT22;5715;48.234;14.320;2022-10-17T05:44:48;12.40;99.90
11320;DHT22;5715;48.234;14.320;2022-10-17T05:47:35;12.40;99.90
11320;DHT22;5715;48.234;14.320;2022-10-17T05:50:23;12.30;99.90
11320;DHT22;5715;48.234;14.320;2022-10-17T05:53:11;12.40;99.90
11320;DHT22;5715;48.234;14.320;2022-10-17T05:56:00;12.40;99.90
11320;DHT22;5715;48.234;14.320;2022-10-17T05:58:49;12.40;99.90
11320;DHT22;5715;48.234;14.320;2022-10-17T06:01:41;12.40;99.90
11320;DHT22;5715;48.234;14.320;2022-10-17T06:04:28;12.50;99.90
11320;DHT22;5715;48.234;14.320;2022-10-17T06:07:16;12.50;99.90
11320;DHT22;5715;48.234;14.320;2022-10-17T06:10:04;12.60;99.90
11320;DHT22;5715;48.234;14.320;2022-10-17T06:12:52;12.60;99.90
11320;DHT22;5715;48.234;14.320;2022-10-17T06:15:39;12.60;99.90
11320;DHT22;5715;48.234;14.320;2022-10-17T06:18:27;12.70;99.90
11320;DHT22;5715;48.234;14.320;2022-10-17T06:21:19;12.70;99.90
11320;DHT22;5715;48.234;14.320;2022-10-17T06:24:09;12.80;99.90
11320;DHT22;5715;48.234;14.320;2022-10-17T06:26:57;12.80;99.90
11320;DHT22;5715;48.234;14.320;2022-10-17T06:29:46;12.80;99.90
11320;DHT22;5715;48.234;14.320;2022-10-17T06:32:34;12.80;99.90
11320;DHT22;5715;48.234;14.320;2022-10-17T06:35:21;12.80;99.90
11320;DHT22;5715;48.234;14.320;2022-10-17T06:38:09;12.90;99.90
11320;DHT22;5715;48.234;14.320;2022-10-17T06:41:16;12.90;99.90
11320;DHT22;5715;48.234;14.320;2022-10-17T06:44:05;12.90;99.90
11320;DHT22;5715;48.234;14.320;2022-10-17T06:46:58;12.90;99.90
11320;DHT22;5715;48.234;14.320;2022-10-17T06:49:46;13.00;99.90
11320;DHT22;5715;48.234;14.320;2022-10-17T06:52:34;13.00;99.90
11320;DHT22;5715;48.234;14.320;2022-10-17T06:55:21;13.00;99.90
11320;DHT22;5715;48.234;14.320;2022-10-17T06:58:09;13.00;99.90
11320;DHT22;5715;48.234;14.320;2022-10-17T07:01:08;13.00;99.90
11320;DHT22;5715;48.234;14.320;2022-10-17T07:03:57;13.10;99.90
11320;DHT22;5715;48.234;14.320;2022-10-17T07:06:45;13.10;99.90
11320;DHT22;5715;48.234;14.320;2022-10-17T07:09:32;13.20;99.90
11320;DHT22;5715;48.234;14.320;2022-10-17T07:12:20;13.20;99.90
11320;DHT22;5715;48.234;14.320;2022-10-17T07:15:08;13.20;99.90
11320;DHT22;5715;48.234;14.320;2022-10-17T07:17:56;13.10;99.90
11320;DHT22;5715;48.234;14.320;2022-10-17T07:20:43;13.20;99.90
11320;DHT22;5715;48.234;14.320;2022-10-17T07:23:39;13.20;99.90
11320;DHT22;5715;48.234;14.320;2022-10-17T07:26:27;13.20;99.90
11320;DHT22;5715;48.234;14.320;2022-10-17T07:29:15;13.20;99.90
11320;DHT22;5715;48.234;14.320;2022-10-17T07:32:02;13.20;99.90
11320;DHT22;5715;48.234;14.320;2022-10-17T07:34:52;13.20;99.90
11320;DHT22;5715;48.234;14.320;2022-10-17T07:37:40;13.20;99.90
11320;DHT22;5715;48.234;14.320;2022-10-17T07:40:27;13.30;99.90
11320;DHT22;5715;48.234;14.320;2022-10-17T07:43:15;13.30;99.90
11320;DHT22;5715;48.234;14.320;2022-10-17T07:46:04;13.30;99.90
11320;DHT22;5715;48.234;14.320;2022-10-17T07:48:51;13.30;99.90
11320;DHT22;5715;48.234;14.320;2022-10-17T07:51:39;13.20;99.90
11320;DHT22;5715;48.234;14.320;2022-10-17T07:54:27;13.30;99.90
11320;DHT22;5715;48.234;14.320;2022-10-17T07:57:14;13.30;99.90
11320;DHT22;5715;48.234;14.320;2022-10-17T08:00:02;13.30;99.90
11320;DHT22;5715;48.234;14.320;2022-10-17T08:02:49;13.20;99.90
11320;DHT22;5715;48.234;14.320;2022-10-17T08:05:37;13.20;99.90
11320;DHT22;5715;48.234;14.320;2022-10-17T08:08:25;13.30;99.90
11320;DHT22;5715;48.234;14.320;2022-10-17T08:11:14;13.40;99.90
11320;DHT22;5715;48.234;14.320;2022-10-17T08:14:02;13.40;99.90
11320;DHT22;5715;48.234;14.320;2022-10-17T08:16:49;13.40;99.90
11320;DHT22;5715;48.234;14.320;2022-10-17T08:19:38;13.30;99.90
11320;DHT22;5715;48.234;14.320;2022-10-17T08:22:26;13.50;99.90
11320;DHT22;5715;48.234;14.320;2022-10-17T08:25:14;13.30;99.90
11320;DHT22;5715;48.234;14.320;2022-10-17T08:28:02;13.30;99.90
11320;DHT22;5715;48.234;14.320;2022-10-17T08:30:49;13.30;99.90
11320;DHT22;5715;48.234;14.320;2022-10-17T08:33:37;13.40;99.90
11320;DHT22;5715;48.234;14.320;2022-10-17T08:36:25;13.50;99.90
11320;DHT22;5715;48.234;14.320;2022-10-17T08:39:14;13.60;99.90
11320;DHT22;5715;48.234;14.320;2022-10-17T08:42:11;13.70;99.90
11320;DHT22;5715;48.234;14.320;2022-10-17T08:48:58;13.80;99.90
11320;DHT22;5715;48.234;14.320;2022-10-17T08:51:52;13.80;99.90
11320;DHT22;5715;48.234;14.320;2022-10-17T08:54:46;13.90;99.90
11320;DHT22;5715;48.234;14.320;2022-10-17T08:57:35;14.00;99.90
11320;DHT22;5715;48.234;14.320;2022-10-17T09:00:22;14.10;99.90
11320;DHT22;5715;48.234;14.320;2022-10-17T09:16:35;14.30;99.90
11320;DHT22;5715;48.234;14.320;2022-10-17T09:22:46;14.40;99.90
11320;DHT22;5715;48.234;14.320;2022-10-17T09:25:53;14.60;99.90
11320;DHT22;5715;48.234;14.320;2022-10-17T09:28:51;14.60;99.90
11320;DHT22;5715;48.234;14.320;2022-10-17T09:31:51;14.70;99.90
11320;DHT22;5715;48.234;14.320;2022-10-17T09:34:48;14.80;99.90
11320;DHT22;5715;48.234;14.320;2022-10-17T09:37:37;14.80;99.90
11320;DHT22;5715;48.234;14.320;2022-10-17T09:40:34;14.90;99.90
11320;DHT22;5715;48.234;14.320;2022-10-17T09:43:22;14.90;99.90
11320;DHT22;5715;48.234;14.320;2022-10-17T09:49:17;14.90;99.90
11320;DHT22;5715;48.234;14.320;2022-10-17T09:52:19;14.90;99.90
11320;DHT22;5715;48.234;14.320;2022-10-17T09:58:05;14.90;99.90
11320;DHT22;5715;48.234;14.320;2022-10-17T10:01:14;15.00;99.90
11320;DHT22;5715;48.234;14.320;2022-10-17T10:04:13;15.00;99.90
11320;DHT22;5715;48.234;14.320;2022-10-17T10:07:04;15.10;99.90
11320;DHT22;5715;48.234;14.320;2022-10-17T10:09:58;14.90;99.90
11320;DHT22;5715;48.234;14.320;2022-10-17T10:13:02;14.60;99.90
11320;DHT22;5715;48.234;14.320;2022-10-17T10:16:22;14.50;99.90
11320;DHT22;5715;48.234;14.320;2022-10-17T10:19:32;14.50;99.90
11320;DHT22;5715;48.234;14.320;2022-10-17T10:22:22;14.60;99.90
11320;DHT22;5715;48.234;14.320;2022-10-17T10:27:57;15.10;99.90
11320;DHT22;5715;48.234;14.320;2022-10-17T10:30:49;15.40;99.90
11320;DHT22;5715;48.234;14.320;2022-10-17T10:33:41;15.70;99.90
11320;DHT22;5715;48.234;14.320;2022-10-17T10:37:14;15.90;99.90
11320;DHT22;5715;48.234;14.320;2022-10-17T10:40:46;16.00;99.90
11320;DHT22;5715;48.234;14.320;2022-10-17T10:43:45;16.10;99.90
11320;DHT22;5715;48.234;14.320;2022-10-17T10:46:34;16.10;99.90
11320;DHT22;5715;48.234;14.320;2022-10-17T10:49:30;16.30;99.90
11320;DHT22;5715;48.234;14.320;2022-10-17T10:52:56;16.50;99.90
11320;DHT22;5715;48.234;14.320;2022-10-17T10:56:18;16.70;99.90
11320;DHT22;5715;48.234;14.320;2022-10-17T10:59:34;16.80;99.90
11320;DHT22;5715;48.234;14.320;2022-10-17T11:02:47;16.80;99.90
11320;DHT22;5715;48.234;14.320;2022-10-17T11:06:18;17.00;99.90
11320;DHT22;5715;48.234;14.320;2022-10-17T11:09:25;17.10;99.90
11320;DHT22;5715;48.234;14.320;2022-10-17T11:12:38;17.20;99.90
11320;DHT22;5715;48.234;14.320;2022-10-17T11:15:46;17.20;99.90
11320;DHT22;5715;48.234;14.320;2022-10-17T11:18:52;17.20;99.90
11320;DHT22;5715;48.234;14.320;2022-10-17T11:22:38;17.20;99.90
11320;DHT22;5715;48.234;14.320;2022-10-17T11:25:36;17.20;99.90
11320;DHT22;5715;48.234;14.320;2022-10-17T11:28:24;17.40;99.90
11320;DHT22;5715;48.234;14.320;2022-10-17T11:31:14;17.40;99.90
11320;DHT22;5715;48.234;14.320;2022-10-17T11:34:11;17.40;99.90
11320;DHT22;5715;48.234;14.320;2022-10-17T11:37:15;17.40;99.90
11320;DHT22;5715;48.234;14.320;2022-10-17T11:40:28;17.50;99.90
11320;DHT22;5715;48.234;14.320;2022-10-17T11:46:23;17.50;99.90
11320;DHT22;5715;48.234;14.320;2022-10-17T11:49:19;17.50;99.90
11320;DHT22;5715;48.234;14.320;2022-10-17T11:55:43;17.30;99.90
11320;DHT22;5715;48.234;14.320;2022-10-17T11:58:53;17.40;99.90
11320;DHT22;5715;48.234;14.320;2022-10-17T12:01:54;17.60;99.90
11320;DHT22;5715;48.234;14.320;2022-10-17T12:09:19;17.80;99.90
11320;DHT22;5715;48.234;14.320;2022-10-17T12:12:01;17.90;99.90
11320;DHT22;5715;48.234;14.320;2022-10-17T12:14:50;18.00;99.90
11320;DHT22;5715;48.234;14.320;2022-10-17T12:17:41;17.90;99.90
11320;DHT22;5715;48.234;14.320;2022-10-17T12:20:40;17.90;99.90
11320;DHT22;5715;48.234;14.320;2022-10-17T12:23:31;17.80;99.90
11320;DHT22;5715;48.234;14.320;2022-10-17T12:26:27;17.80;99.90
11320;DHT22;5715;48.234;14.320;2022-10-17T12:29:27;17.80;99.90
11320;DHT22;5715;48.234;14.320;2022-10-17T12:32:15;17.90;99.90
11320;DHT22;5715;48.234;14.320;2022-10-17T12:35:03;17.80;99.90
11320;DHT22;5715;48.234;14.320;2022-10-17T12:46:44;18.30;99.90
11320;DHT22;5715;48.234;14.320;2022-10-17T12:55:24;18.10;99.90
11320;DHT22;5715;48.234;14.320;2022-10-17T12:58:15;18.20;99.90
11320;DHT22;5715;48.234;14.320;2022-10-17T13:01:04;18.20;99.90
11320;DHT22;5715;48.234;14.320;2022-10-17T13:04:10;18.30;99.90
11320;DHT22;5715;48.234;14.320;2022-10-17T13:06:58;18.40;99.90
11320;DHT22;5715;48.234;14.320;2022-10-17T13:09:48;18.40;99.90
11320;DHT22;5715;48.234;14.320;2022-10-17T13:12:37;18.40;99.90
11320;DHT22;5715;48.234;14.320;2022-10-17T13:15:27;18.40;99.90
11320;DHT22;5715;48.234;14.320;2022-10-17T13:18:24;18.50;99.90
11320;DHT22;5715;48.234;14.320;2022-10-17T13:21:15;18.40;99.90
11320;DHT22;5715;48.234;14.320;2022-10-17T13:27:40;18.60;99.90
11320;DHT22;5715;48.234;14.320;2022-10-17T13:30:33;18.60;99.90
11320;DHT22;5715;48.234;14.320;2022-10-17T13:33:42;18.50;99.90
11320;DHT22;5715;48.234;14.320;2022-10-17T13:36:31;18.60;99.90
11320;DHT22;5715;48.234;14.320;2022-10-17T13:39:26;18.70;99.90
11320;DHT22;5715;48.234;14.320;2022-10-17T13:42:38;18.80;99.90
11320;DHT22;5715;48.234;14.320;2022-10-17T13:45:32;18.80;99.90
11320;DHT22;5715;48.234;14.320;2022-10-17T13:48:24;18.80;99.90
11320;DHT22;5715;48.234;14.320;2022-10-17T13:51:14;18.70;99.90
11320;DHT22;5715;48.234;14.320;2022-10-17T13:54:16;18.70;99.90
11320;DHT22;5715;48.234;14.320;2022-10-17T13:57:17;18.70;99.90
11320;DHT22;5715;48.234;14.320;2022-10-17T14:00:20;18.80;99.90
11320;DHT22;5715;48.234;14.320;2022-10-17T14:03:09;18.60;99.90
11320;DHT22;5715;48.234;14.320;2022-10-17T14:09:06;18.50;99.90
11320;DHT22;5715;48.234;14.320;2022-10-17T14:12:09;18.50;99.90
11320;DHT22;5715;48.234;14.320;2022-10-17T14:15:02;18.60;99.90
11320;DHT22;5715;48.234;14.320;2022-10-17T14:18:03;18.60;99.90
11320;DHT22;5715;48.234;14.320;2022-10-17T14:20:54;18.70;99.90
11320;DHT22;5715;48.234;14.320;2022-10-17T14:30:36;18.60;99.90
11320;DHT22;5715;48.234;14.320;2022-10-17T14:33:46;18.50;99.90
11320;DHT22;5715;48.234;14.320;2022-10-17T14:36:39;18.50;99.90
11320;DHT22;5715;48.234;14.320;2022-10-17T14:39:28;18.60;99.90
11320;DHT22;5715;48.234;14.320;2022-10-17T14:42:21;18.60;99.90
11320;DHT22;5715;48.234;14.320;2022-10-17T14:45:27;18.60;99.90
11320;DHT22;5715;48.234;14.320;2022-10-17T14:48:25;18.50;99.90
11320;DHT22;5715;48.234;14.320;2022-10-17T14:51:17;18.40;99.90
11320;DHT22;5715;48.234;14.320;2022-10-17T14:54:25;18.30;99.90
11320;DHT22;5715;48.234;14.320;2022-10-17T14:57:23;18.30;99.90
11320;DHT22;5715;48.234;14.320;2022-10-17T15:00:22;18.20;99.90
11320;DHT22;5715;48.234;14.320;2022-10-17T15:03:10;18.10;99.90
11320;DHT22;5715;48.234;14.320;2022-10-17T15:06:18;18.10;99.90
11320;DHT22;5715;48.234;14.320;2022-10-17T15:09:10;18.10;99.90
11320;DHT22;5715;48.234;14.320;2022-10-17T15:12:05;18.00;99.90
11320;DHT22;5715;48.234;14.320;2022-10-17T15:14:53;17.90;99.90
11320;DHT22;5715;48.234;14.320;2022-10-17T15:17:41;17.90;99.90
11320;DHT22;5715;48.234;14.320;2022-10-17T15:20:30;17.80;99.90
11320;DHT22;5715;48.234;14.320;2022-10-17T15:23:18;17.70;99.90
11320;DHT22;5715;48.234;14.320;2022-10-17T15:29:03;17.50;99.90
11320;DHT22;5715;48.234;14.320;2022-10-17T15:31:51;17.40;99.90
11320;DHT22;5715;48.234;14.320;2022-10-17T15:34:39;17.40;99.90
11320;DHT22;5715;48.234;14.320;2022-10-17T15:37:32;17.30;99.90
11320;DHT22;5715;48.234;14.320;2022-10-17T15:40:26;17.20;99.90
11320;DHT22;5715;48.234;14.320;2022-10-17T15:43:16;17.10;99.90
11320;DHT22;5715;48.234;14.320;2022-10-17T15:46:21;17.00;99.90
11320;DHT22;5715;48.234;14.320;2022-10-17T15:49:13;16.80;99.90
11320;DHT22;5715;48.234;14.320;2022-10-17T15:52:03;16.80;99.90
11320;DHT22;5715;48.234;14.320;2022-10-17T15:54:52;16.70;99.90
11320;DHT22;5715;48.234;14.320;2022-10-17T15:57:42;16.50;99.90
11320;DHT22;5715;48.234;14.320;2022-10-17T16:00:31;16.50;99.90
11320;DHT22;5715;48.234;14.320;2022-10-17T16:03:18;16.30;99.90
11320;DHT22;5715;48.234;14.320;2022-10-17T16:06:09;16.10;99.90
11320;DHT22;5715;48.234;14.320;2022-10-17T16:09:00;16.00;99.90
11320;DHT22;5715;48.234;14.320;2022-10-17T16:11:47;15.80;99.90
11320;DHT22;5715;48.234;14.320;2022-10-17T16:14:35;15.70;99.90
11320;DHT22;5715;48.234;14.320;2022-10-17T16:17:22;15.60;99.90
11320;DHT22;5715;48.234;14.320;2022-10-17T16:20:11;15.40;99.90
11320;DHT22;5715;48.234;14.320;2022-10-17T16:22:59;15.30;99.90
11320;DHT22;5715;48.234;14.320;2022-10-17T16:25:49;15.20;99.90
11320;DHT22;5715;48.234;14.320;2022-10-17T16:28:37;15.00;99.90
11320;DHT22;5715;48.234;14.320;2022-10-17T16:31:37;14.90;99.90
11320;DHT22;5715;48.234;14.320;2022-10-17T16:34:28;14.80;99.90
11320;DHT22;5715;48.234;14.320;2022-10-17T16:37:17;14.70;99.90
11320;DHT22;5715;48.234;14.320;2022-10-17T16:40:05;14.60;99.90
11320;DHT22;5715;48.234;14.320;2022-10-17T16:42:52;14.50;99.90
11320;DHT22;5715;48.234;14.320;2022-10-17T16:45:40;14.40;99.90
11320;DHT22;5715;48.234;14.320;2022-10-17T16:48:27;14.40;99.90
11320;DHT22;5715;48.234;14.320;2022-10-17T16:51:17;14.30;99.90
11320;DHT22;5715;48.234;14.320;2022-10-17T16:54:07;14.20;99.90
11320;DHT22;5715;48.234;14.320;2022-10-17T16:56:55;14.10;99.90
11320;DHT22;5715;48.234;14.320;2022-10-17T16:59:46;14.00;99.90
11320;DHT22;5715;48.234;14.320;2022-10-17T17:02:33;14.00;99.90
11320;DHT22;5715;48.234;14.320;2022-10-17T17:05:21;14.00;99.90
11320;DHT22;5715;48.234;14.320;2022-10-17T17:08:09;13.90;99.90
11320;DHT22;5715;48.234;14.320;2022-10-17T17:10:59;13.80;99.90
11320;DHT22;5715;48.234;14.320;2022-10-17T17:13:46;13.80;99.90
11320;DHT22;5715;48.234;14.320;2022-10-17T17:16:35;13.70;99.90
11320;DHT22;5715;48.234;14.320;2022-10-17T17:19:22;13.70;99.90
11320;DHT22;5715;48.234;14.320;2022-10-17T17:22:10;13.70;99.90
11320;DHT22;5715;48.234;14.320;2022-10-17T17:24:57;13.60;99.90
11320;DHT22;5715;48.234;14.320;2022-10-17T17:27:45;13.40;99.90
11320;DHT22;5715;48.234;14.320;2022-10-17T17:30:33;13.40;99.90
11320;DHT22;5715;48.234;14.320;2022-10-17T17:33:22;13.30;99.90
11320;DHT22;5715;48.234;14.320;2022-10-17T17:36:17;13.30;99.90
11320;DHT22;5715;48.234;14.320;2022-10-17T17:39:09;13.20;99.90
11320;DHT22;5715;48.234;14.320;2022-10-17T17:41:58;13.20;99.90
11320;DHT22;5715;48.234;14.320;2022-10-17T17:44:45;13.20;99.90
11320;DHT22;5715;48.234;14.320;2022-10-17T17:47:34;13.20;99.90
11320;DHT22;5715;48.234;14.320;2022-10-17T17:50:21;13.10;99.90
11320;DHT22;5715;48.234;14.320;2022-10-17T17:53:11;13.10;99.90
11320;DHT22;5715;48.234;14.320;2022-10-17T17:56:04;13.10;99.90
11320;DHT22;5715;48.234;14.320;2022-10-17T17:58:56;13.10;99.90
11320;DHT22;5715;48.234;14.320;2022-10-17T18:01:48;13.10;99.90
11320;DHT22;5715;48.234;14.320;2022-10-17T18:04:35;13.10;99.90
11320;DHT22;5715;48.234;14.320;2022-10-17T18:07:23;13.00;99.90
11320;DHT22;5715;48.234;14.320;2022-10-17T18:10:11;13.00;99.90
11320;DHT22;5715;48.234;14.320;2022-10-17T18:13:01;13.00;99.90
11320;DHT22;5715;48.234;14.320;2022-10-17T18:15:49;12.90;99.90
11320;DHT22;5715;48.234;14.320;2022-10-17T18:18:42;12.90;99.90
11320;DHT22;5715;48.234;14.320;2022-10-17T18:21:31;12.90;99.90
11320;DHT22;5715;48.234;14.320;2022-10-17T18:24:19;12.80;99.90
11320;DHT22;5715;48.234;14.320;2022-10-17T18:27:06;12.80;99.90
11320;DHT22;5715;48.234;14.320;2022-10-17T18:29:54;12.80;99.90
11320;DHT22;5715;48.234;14.320;2022-10-17T18:32:42;12.80;99.90
11320;DHT22;5715;48.234;14.320;2022-10-17T18:35:30;12.80;99.90
11320;DHT22;5715;48.234;14.320;2022-10-17T18:38:18;12.80;99.90
11320;DHT22;5715;48.234;14.320;2022-10-17T18:41:11;12.70;99.90
11320;DHT22;5715;48.234;14.320;2022-10-17T18:44:01;12.70;99.90
11320;DHT22;5715;48.234;14.320;2022-10-17T18:46:49;12.60;99.90
11320;DHT22;5715;48.234;14.320;2022-10-17T18:49:37;12.60;99.90
11320;DHT22;5715;48.234;14.320;2022-10-17T18:52:24;12.60;99.90
11320;DHT22;5715;48.234;14.320;2022-10-17T18:55:12;12.50;99.90
11320;DHT22;5715;48.234;14.320;2022-10-17T18:58:00;12.50;99.90
11320;DHT22;5715;48.234;14.320;2022-10-17T19:00:49;12.50;99.90
11320;DHT22;5715;48.234;14.320;2022-10-17T19:03:37;12.40;99.90
11320;DHT22;5715;48.234;14.320;2022-10-17T19:06:27;12.40;99.90
11320;DHT22;5715;48.234;14.320;2022-10-17T19:09:18;12.30;99.90
11320;DHT22;5715;48.234;14.320;2022-10-17T19:12:05;12.30;99.90
11320;DHT22;5715;48.234;14.320;2022-10-17T19:14:53;12.30;99.90
11320;DHT22;5715;48.234;14.320;2022-10-17T19:17:42;12.20;99.90
11320;DHT22;5715;48.234;14.320;2022-10-17T19:20:29;12.20;99.90
11320;DHT22;5715;48.234;14.320;2022-10-17T19:23:17;12.20;99.90
11320;DHT22;5715;48.234;14.320;2022-10-17T19:26:08;12.10;99.90
11320;DHT22;5715;48.234;14.320;2022-10-17T19:28:57;12.10;99.90
11320;DHT22;5715;48.234;14.320;2022-10-17T19:31:47;12.10;99.90
11320;DHT22;5715;48.234;14.320;2022-10-17T19:34:35;12.10;99.90
11320;DHT22;5715;48.234;14.320;2022-10-17T19:37:23;12.00;99.90
11320;DHT22;5715;48.234;14.320;2022-10-17T19:40:11;12.00;99.90
11320;DHT22;5715;48.234;14.320;2022-10-17T19:42:59;12.00;99.90
11320;DHT22;5715;48.234;14.320;2022-10-17T19:46:01;11.90;99.90
11320;DHT22;5715;48.234;14.320;2022-10-17T19:48:50;11.90;99.90